Time;durP1;ratioP1;P1;durP2;ratioP2;P2;SDS_P1;SDS_P2;PMS_P1;PMS_P2;Temp;Humidity;BMP_temperature;BMP_pressure;BME280_temperature;BME280_humidity;BME280_pressure;Samples;Min_cycle;Max_cycle;Signal;HPM_P1;HPM_P2
2022/08/03 00:02:16;;;;;;;7.90;3.40;;;21.00;72.60;;;;;;5019199;28;20112;-72
2022/08/03 00:04:41;;;;;;;3.60;2.90;;;21.00;72.80;;;;;;5023554;28;20458;-71
2022/08/03 00:07:07;;;;;;;4.18;3.15;;;21.10;72.90;;;;;;5022251;28;20041;-72
2022/08/03 00:09:32;;;;;;;5.25;3.45;;;21.10;72.20;;;;;;5017704;28;20108;-72
2022/08/03 00:11:58;;;;;;;5.53;2.97;;;21.00;72.30;;;;;;5026590;28;20026;-72
2022/08/03 00:14:23;;;;;;;4.57;3.30;;;21.00;72.40;;;;;;5026051;28;20033;-72
2022/08/03 00:16:49;;;;;;;4.82;3.42;;;21.00;72.80;;;;;;5018477;28;20492;-72
2022/08/03 00:19:14;;;;;;;6.78;3.58;;;20.90;72.80;;;;;;5021871;28;20041;-72
2022/08/03 00:21:40;;;;;;;5.53;3.35;;;20.80;73.50;;;;;;5027436;28;20028;-72
2022/08/03 00:24:05;;;;;;;7.70;3.65;;;20.70;73.50;;;;;;5026213;28;20068;-72
2022/08/03 00:26:31;;;;;;;5.72;3.90;;;20.70;73.80;;;;;;5024102;28;20045;-72
2022/08/03 00:28:56;;;;;;;5.95;3.45;;;20.70;73.50;;;;;;5028691;28;20100;-72
2022/08/03 00:31:22;;;;;;;10.23;3.20;;;20.70;73.10;;;;;;5025826;28;20361;-72
2022/08/03 00:33:47;;;;;;;8.05;3.65;;;20.70;73.30;;;;;;5022737;28;20065;-72
2022/08/03 00:36:13;;;;;;;7.25;3.17;;;20.60;73.20;;;;;;5028287;28;20029;-72
2022/08/03 00:38:38;;;;;;;6.20;3.08;;;20.60;73.80;;;;;;5026020;28;20065;-72
2022/08/03 00:41:04;;;;;;;5.43;3.40;;;20.50;73.70;;;;;;5026164;28;20056;-72
2022/08/03 00:43:29;;;;;;;7.65;3.25;;;20.50;74.10;;;;;;5027693;28;20041;-72
2022/08/03 00:45:55;;;;;;;5.53;3.22;;;20.40;74.20;;;;;;5024236;28;20083;-71
2022/08/03 00:48:21;;;;;;;5.53;3.30;;;20.20;74.70;;;;;;5020132;28;20037;-71
2022/08/03 00:50:47;;;;;;;4.88;3.42;;;20.10;75.50;;;;;;5025858;28;20033;-72
2022/08/03 00:53:13;;;;;;;5.47;4.07;;;20.20;75.00;;;;;;5024862;28;20025;-72
2022/08/03 00:55:40;;;;;;;5.30;3.38;;;20.20;75.00;;;;;;5015796;28;20515;-71
2022/08/03 00:58:07;;;;;;;5.93;3.92;;;20.30;74.60;;;;;;5027335;28;20033;-71
2022/08/03 01:00:37;;;;;;;5.75;3.60;;;20.20;75.10;;;;;;5030079;28;20361;-72
2022/08/03 01:03:03;;;;;;;7.10;3.77;;;20.20;74.80;;;;;;5028555;28;20105;-72
2022/08/03 01:05:31;;;;;;;4.55;3.33;;;20.30;74.70;;;;;;5022794;28;20131;-72
2022/08/03 01:08:10;;;;;;;5.97;3.58;;;20.20;74.70;;;;;;5020248;28;20026;-72
2022/08/03 01:10:57;;;;;;;5.13;3.72;;;20.10;74.90;;;;;;5025138;28;20076;-71
2022/08/03 01:13:33;;;;;;;4.65;3.00;;;20.00;75.60;;;;;;5026506;28;20366;-71
2022/08/03 01:16:08;;;;;;;4.95;3.10;;;20.00;75.70;;;;;;5026780;28;20112;-72
2022/08/03 01:18:44;;;;;;;4.78;3.50;;;20.00;76.20;;;;;;5019317;28;20477;-72
2022/08/03 01:21:16;;;;;;;6.05;3.50;;;19.80;76.70;;;;;;5026090;28;20044;-72
2022/08/03 01:23:53;;;;;;;7.22;3.97;;;19.80;77.00;;;;;;5028591;28;20473;-72
2022/08/03 01:26:39;;;;;;;5.97;3.30;;;19.90;77.00;;;;;;5030280;28;20083;-71
2022/08/03 01:29:37;;;;;;;9.90;4.05;;;19.70;77.10;;;;;;5030555;28;20025;-72
2022/08/03 01:32:10;;;;;;;8.60;3.78;;;19.70;77.70;;;;;;5025521;28;20038;-72
2022/08/03 01:34:42;;;;;;;7.75;3.72;;;19.70;77.50;;;;;;5024809;28;20018;-71
2022/08/03 01:37:09;;;;;;;7.38;3.83;;;19.70;77.50;;;;;;5030915;28;20041;-72
2022/08/03 01:39:38;;;;;;;5.40;3.53;;;19.70;77.80;;;;;;5025075;28;20030;-72
2022/08/03 01:42:06;;;;;;;7.60;4.53;;;19.60;78.00;;;;;;5024267;28;20018;-72
2022/08/03 01:44:37;;;;;;;6.15;3.95;;;19.70;77.60;;;;;;5031464;28;20115;-72
2022/08/03 01:47:05;;;;;;;8.07;3.78;;;19.70;77.80;;;;;;5027979;28;20028;-71
2022/08/03 01:49:36;;;;;;;7.22;3.95;;;19.70;77.30;;;;;;5024437;28;20032;-72
2022/08/03 01:52:03;;;;;;;7.82;4.35;;;19.70;77.20;;;;;;5021910;28;20030;-72
2022/08/03 01:54:29;;;;;;;7.22;4.20;;;19.60;78.20;;;;;;5027935;28;20476;-71
2022/08/03 01:56:57;;;;;;;5.30;3.92;;;19.50;77.90;;;;;;5030456;28;20377;-71
2022/08/03 01:59:25;;;;;;;4.65;3.53;;;19.50;77.80;;;;;;5023578;28;20418;-72
2022/08/03 02:01:53;;;;;;;8.27;4.65;;;19.50;78.00;;;;;;5028193;28;20030;-72
2022/08/03 02:04:20;;;;;;;6.88;4.40;;;19.50;78.10;;;;;;5024310;28;20026;-71
2022/08/03 02:06:48;;;;;;;7.05;3.90;;;19.50;78.20;;;;;;5024038;28;20036;-72
2022/08/03 02:09:16;;;;;;;6.60;3.55;;;19.50;78.00;;;;;;5027479;28;20021;-72
2022/08/03 02:11:43;;;;;;;6.88;4.18;;;19.40;78.40;;;;;;5028487;28;20133;-72
2022/08/03 02:14:10;;;;;;;8.60;4.15;;;19.50;78.30;;;;;;5030493;28;20148;-72
2022/08/03 02:16:36;;;;;;;5.68;3.70;;;19.40;78.50;;;;;;5027878;28;20022;-72
2022/08/03 02:19:05;;;;;;;5.75;3.72;;;19.40;78.70;;;;;;5027038;28;20052;-72
2022/08/03 02:21:34;;;;;;;7.00;4.20;;;19.30;79.10;;;;;;5029315;28;20030;-72
2022/08/03 02:24:00;;;;;;;4.93;4.00;;;19.20;79.60;;;;;;5027744;28;20025;-72
2022/08/03 02:26:28;;;;;;;6.18;4.38;;;19.10;79.90;;;;;;5027780;28;20556;-72
2022/08/03 02:28:56;;;;;;;7.22;4.28;;;19.10;79.90;;;;;;5017150;28;20661;-71
2022/08/03 02:31:24;;;;;;;6.57;4.35;;;19.00;80.00;;;;;;5024341;28;20068;-72
2022/08/03 02:33:54;;;;;;;7.68;4.13;;;19.00;80.30;;;;;;5028924;28;20028;-71
2022/08/03 02:36:24;;;;;;;4.70;3.92;;;19.00;80.10;;;;;;5030234;28;20061;-72
2022/08/03 02:38:55;;;;;;;16.90;4.88;;;19.00;80.40;;;;;;5029980;28;20053;-72
2022/08/03 02:41:30;;;;;;;9.77;4.30;;;18.90;80.70;;;;;;5026354;28;20045;-72
2022/08/03 02:43:58;;;;;;;6.82;4.22;;;18.80;80.80;;;;;;5023922;28;20017;-72
2022/08/03 02:46:27;;;;;;;7.90;4.20;;;18.70;81.20;;;;;;5028671;28;20119;-72
2022/08/03 02:48:54;;;;;;;6.10;4.15;;;18.70;81.30;;;;;;5025539;28;20500;-72
2022/08/03 02:51:22;;;;;;;5.32;4.03;;;18.80;81.40;;;;;;5029660;28;20128;-72
2022/08/03 02:53:48;;;;;;;14.30;4.20;;;18.70;81.50;;;;;;5028298;28;20630;-72
2022/08/03 02:56:16;;;;;;;6.72;4.32;;;18.70;81.50;;;;;;5028998;28;20021;-72
2022/08/03 02:58:43;;;;;;;6.47;4.38;;;18.60;81.90;;;;;;5020805;28;20495;-72
2022/08/03 03:01:10;;;;;;;6.78;4.60;;;18.70;81.10;;;;;;5024428;28;20034;-71
2022/08/03 03:03:37;;;;;;;21.55;5.38;;;18.70;81.60;;;;;;5028441;28;20025;-72
2022/08/03 03:06:04;;;;;;;8.98;4.90;;;18.60;81.90;;;;;;5026111;28;20025;-71
2022/08/03 03:08:30;;;;;;;7.88;4.43;;;18.60;81.90;;;;;;5024189;28;20038;-72
2022/08/03 03:10:58;;;;;;;9.05;4.55;;;18.60;81.90;;;;;;5029375;28;20030;-71
2022/08/03 03:13:26;;;;;;;17.80;5.05;;;18.60;82.00;;;;;;5028945;28;20025;-72
2022/08/03 03:15:55;;;;;;;6.88;5.03;;;18.60;82.20;;;;;;5029886;28;20025;-72
2022/08/03 03:18:22;;;;;;;11.13;4.50;;;18.50;82.10;;;;;;5027423;28;20167;-72
2022/08/03 03:20:50;;;;;;;9.00;4.72;;;18.60;81.80;;;;;;5024409;28;20036;-71
2022/08/03 03:23:16;;;;;;;8.85;4.25;;;18.50;81.90;;;;;;5029454;28;20026;-72
2022/08/03 03:25:42;;;;;;;9.25;4.63;;;18.50;82.10;;;;;;5029511;28;20064;-71
2022/08/03 03:28:10;;;;;;;13.32;4.75;;;18.50;82.20;;;;;;5029345;28;20057;-71
2022/08/03 03:30:35;;;;;;;5.70;4.40;;;18.50;82.20;;;;;;5026563;28;20044;-71
2022/08/03 03:33:01;;;;;;;9.70;4.45;;;18.50;82.00;;;;;;5024667;28;20034;-72
2022/08/03 03:35:27;;;;;;;10.00;4.57;;;18.50;82.20;;;;;;5029780;28;20477;-71
2022/08/03 03:37:53;;;;;;;11.38;4.45;;;18.50;82.50;;;;;;5028348;28;20056;-72
2022/08/03 03:40:20;;;;;;;8.77;4.50;;;18.50;82.50;;;;;;5028826;28;20037;-71
2022/08/03 03:42:46;;;;;;;11.75;4.90;;;18.50;82.50;;;;;;5027724;28;20025;-72
2022/08/03 03:45:12;;;;;;;6.90;4.53;;;18.30;83.00;;;;;;5026936;28;20083;-72
2022/08/03 03:47:37;;;;;;;6.53;4.40;;;18.50;82.70;;;;;;5026706;28;20120;-71
2022/08/03 03:50:04;;;;;;;7.47;5.00;;;18.40;82.60;;;;;;5024976;28;20573;-72
2022/08/03 03:52:33;;;;;;;7.57;4.40;;;18.40;82.70;;;;;;5026503;28;20060;-71
2022/08/03 03:54:59;;;;;;;9.80;5.00;;;18.40;82.90;;;;;;5027483;28;20025;-72
2022/08/03 03:57:25;;;;;;;6.88;4.22;;;18.50;82.70;;;;;;5023836;28;20080;-71
2022/08/03 03:59:50;;;;;;;9.77;4.65;;;18.50;82.50;;;;;;5026260;28;20510;-71
2022/08/03 04:02:16;;;;;;;7.05;4.55;;;18.50;82.80;;;;;;5027939;28;20030;-72
2022/08/03 04:13:08;;;;;;;24.25;6.05;;;18.50;82.70;;;;;;5027495;28;20477;-72
2022/08/03 04:15:36;;;;;;;11.52;4.90;;;18.60;82.30;;;;;;5024664;28;20112;-71
2022/08/03 04:18:03;;;;;;;23.67;5.63;;;18.60;82.20;;;;;;5018820;28;20036;-71
2022/08/03 04:20:32;;;;;;;19.27;5.03;;;18.60;82.40;;;;;;5025930;28;20025;-71
2022/08/03 04:23:00;;;;;;;7.82;4.50;;;18.70;82.10;;;;;;5022286;28;20029;-71
2022/08/03 04:25:30;;;;;;;8.23;4.32;;;18.80;81.90;;;;;;5018579;28;20026;-71
2022/08/03 04:27:59;;;;;;;10.82;4.97;;;18.80;81.60;;;;;;5019170;28;20022;-69
2022/08/03 04:30:28;;;;;;;8.80;4.40;;;18.80;81.60;;;;;;5011510;28;20036;-68
2022/08/03 04:32:58;;;;;;;11.98;4.65;;;18.90;81.10;;;;;;5022564;28;20033;-69
2022/08/03 04:35:25;;;;;;;8.57;5.10;;;18.90;81.50;;;;;;5033111;28;20103;-68
2022/08/03 04:37:53;;;;;;;8.70;4.60;;;19.00;81.10;;;;;;5032242;28;20048;-69
2022/08/03 04:40:26;;;;;;;6.25;4.10;;;19.00;81.10;;;;;;5032460;28;20049;-69
2022/08/03 04:42:53;;;;;;;7.97;4.40;;;19.00;80.90;;;;;;5028118;28;20036;-69
2022/08/03 04:45:20;;;;;;;5.20;3.83;;;19.10;80.60;;;;;;5028950;28;20021;-69
2022/08/03 04:47:46;;;;;;;4.90;4.15;;;19.10;80.60;;;;;;5019535;28;20140;-69
2022/08/03 04:50:12;;;;;;;5.78;3.88;;;19.10;80.90;;;;;;5029023;28;20117;-69
2022/08/03 04:52:38;;;;;;;6.82;4.32;;;19.10;80.90;;;;;;5031884;28;20477;-69
2022/08/03 04:55:04;;;;;;;7.00;4.70;;;19.10;80.90;;;;;;5023899;28;20036;-69
2022/08/03 04:57:29;;;;;;;5.03;3.90;;;19.20;81.20;;;;;;5029396;28;20124;-69
2022/08/03 04:59:55;;;;;;;8.18;4.22;;;19.10;81.00;;;;;;5029279;28;20042;-69
2022/08/03 05:02:21;;;;;;;7.10;4.13;;;19.20;81.60;;;;;;5028467;28;20025;-69
2022/08/03 05:04:47;;;;;;;6.90;4.22;;;19.20;80.90;;;;;;5032495;28;20030;-69
2022/08/03 05:07:14;;;;;;;6.05;4.22;;;19.40;80.20;;;;;;5030164;28;20018;-69
2022/08/03 05:09:39;;;;;;;6.47;4.20;;;19.50;79.80;;;;;;5029284;28;20048;-69
2022/08/03 05:12:05;;;;;;;9.32;4.30;;;19.50;80.40;;;;;;5032768;28;20029;-69
2022/08/03 05:14:37;;;;;;;7.57;4.25;;;19.50;79.90;;;;;;5030736;28;20043;-69
2022/08/03 05:17:03;;;;;;;5.93;4.35;;;19.50;80.70;;;;;;5030850;28;20029;-69
2022/08/03 05:19:29;;;;;;;6.97;4.30;;;19.50;80.00;;;;;;5025488;28;20100;-69
2022/08/03 05:21:54;;;;;;;10.32;4.30;;;19.60;80.20;;;;;;5025325;28;21603;-69
2022/08/03 05:24:20;;;;;;;6.45;3.90;;;19.70;79.50;;;;;;5028722;28;20028;-69
2022/08/03 05:26:45;;;;;;;6.30;4.10;;;19.70;79.90;;;;;;5030956;28;20071;-69
2022/08/03 05:29:11;;;;;;;9.23;3.72;;;19.80;79.30;;;;;;5024197;28;20318;-69
2022/08/03 05:31:36;;;;;;;5.78;3.90;;;19.80;79.30;;;;;;5031557;28;20030;-69
2022/08/03 05:34:02;;;;;;;6.18;3.78;;;19.90;79.20;;;;;;5027364;28;20030;-69
2022/08/03 05:36:27;;;;;;;9.55;4.30;;;19.90;79.20;;;;;;5032173;28;20555;-69
2022/08/03 05:38:53;;;;;;;7.93;4.00;;;20.00;78.60;;;;;;5030794;28;20053;-69
2022/08/03 05:41:19;;;;;;;5.03;3.67;;;20.00;78.90;;;;;;5030130;28;20049;-69
2022/08/03 05:43:45;;;;;;;5.20;3.88;;;20.10;78.50;;;;;;5031415;28;20021;-69
2022/08/03 05:46:10;;;;;;;4.63;3.47;;;20.20;78.60;;;;;;5023108;28;20101;-69
2022/08/03 05:48:36;;;;;;;6.72;4.00;;;20.20;78.30;;;;;;5029904;28;20060;-71
2022/08/03 05:51:03;;;;;;;5.53;3.83;;;20.30;78.20;;;;;;5027799;28;20026;-71
2022/08/03 05:53:32;;;;;;;6.50;3.95;;;20.30;78.70;;;;;;5025999;28;20029;-71
2022/08/03 05:55:58;;;;;;;8.05;4.20;;;20.30;78.70;;;;;;5022254;28;20038;-71
2022/08/03 05:58:24;;;;;;;6.38;3.88;;;20.50;78.30;;;;;;5029731;28;20041;-71
2022/08/03 06:00:49;;;;;;;7.82;3.85;;;20.50;78.10;;;;;;5022986;28;20037;-69
2022/08/03 06:03:15;;;;;;;5.72;3.80;;;20.60;78.00;;;;;;5030763;28;20036;-69
2022/08/03 06:05:40;;;;;;;4.32;3.25;;;20.70;78.10;;;;;;5029059;28;20037;-69
2022/08/03 06:08:06;;;;;;;6.35;3.90;;;20.80;77.70;;;;;;5021614;28;20045;-69
2022/08/03 06:10:32;;;;;;;5.13;3.72;;;20.90;77.70;;;;;;5027161;28;20033;-68
2022/08/03 06:12:57;;;;;;;7.03;3.72;;;21.00;77.20;;;;;;5027836;28;20044;-69
2022/08/03 06:15:23;;;;;;;5.53;3.97;;;21.10;76.80;;;;;;5026492;28;20511;-69
2022/08/03 06:17:50;;;;;;;8.55;3.88;;;21.20;76.40;;;;;;5027802;28;20034;-69
2022/08/03 06:20:18;;;;;;;5.38;3.40;;;21.40;76.20;;;;;;5023452;28;20025;-69
2022/08/03 06:22:44;;;;;;;7.68;3.35;;;21.50;76.80;;;;;;5029171;28;20048;-69
2022/08/03 06:25:09;;;;;;;6.10;3.20;;;21.50;76.40;;;;;;5030383;28;20586;-69
2022/08/03 06:27:38;;;;;;;4.90;3.15;;;21.60;75.90;;;;;;5026765;28;20021;-69
2022/08/03 06:30:05;;;;;;;5.18;3.33;;;21.70;75.90;;;;;;5024747;28;21086;-70
2022/08/03 06:32:30;;;;;;;6.93;3.25;;;21.90;75.10;;;;;;5025446;28;20148;-71
2022/08/03 06:34:56;;;;;;;5.75;3.28;;;22.00;75.10;;;;;;5027656;28;20485;-71
2022/08/03 06:37:23;;;;;;;3.80;2.80;;;22.20;74.90;;;;;;5029968;28;20049;-71
2022/08/03 06:39:48;;;;;;;5.00;2.85;;;22.30;74.60;;;;;;5025286;28;20033;-71
2022/08/03 06:42:14;;;;;;;4.47;2.90;;;22.50;75.20;;;;;;5024411;28;20041;-71
2022/08/03 06:44:39;;;;;;;3.85;2.63;;;22.60;72.50;;;;;;5024983;28;20364;-71
2022/08/03 06:47:05;;;;;;;3.85;2.42;;;22.70;73.40;;;;;;5026933;28;20083;-71
2022/08/03 06:49:30;;;;;;;4.68;3.00;;;22.70;72.30;;;;;;5027124;28;20056;-71
2022/08/03 06:51:56;;;;;;;4.60;3.00;;;22.90;71.70;;;;;;5027323;28;20306;-71
2022/08/03 06:54:23;;;;;;;5.57;2.90;;;23.00;71.00;;;;;;5028728;28;20108;-71
2022/08/03 06:56:49;;;;;;;3.70;2.42;;;23.10;72.30;;;;;;5026919;28;20053;-71
2022/08/03 06:59:14;;;;;;;4.82;2.60;;;23.20;71.70;;;;;;5022075;28;20468;-71
2022/08/03 07:01:40;;;;;;;5.55;2.63;;;23.40;71.00;;;;;;5024000;28;20465;-71
2022/08/03 07:04:05;;;;;;;4.45;2.35;;;23.40;71.40;;;;;;5023958;28;20025;-71
2022/08/03 07:06:31;;;;;;;5.93;2.67;;;23.60;71.40;;;;;;5025618;28;20453;-71
2022/08/03 07:08:56;;;;;;;4.05;2.30;;;23.70;71.90;;;;;;5025591;28;20030;-71
2022/08/03 07:11:22;;;;;;;4.35;2.30;;;23.90;71.20;;;;;;5028888;28;20100;-71
2022/08/03 07:13:48;;;;;;;3.40;2.42;;;24.10;69.40;;;;;;5024568;28;20116;-71
2022/08/03 07:16:13;;;;;;;3.47;1.92;;;24.20;70.20;;;;;;5029590;28;20082;-71
2022/08/03 07:18:39;;;;;;;4.63;2.20;;;24.40;69.10;;;;;;5020183;28;20473;-70
2022/08/03 07:21:05;;;;;;;6.05;2.47;;;24.40;66.60;;;;;;5025464;28;20037;-71
2022/08/03 07:23:30;;;;;;;4.93;2.15;;;24.40;66.80;;;;;;5022072;28;20434;-71
2022/08/03 07:25:56;;;;;;;6.75;2.40;;;24.60;68.10;;;;;;5027765;28;20037;-71
2022/08/03 07:28:21;;;;;;;3.88;2.10;;;24.70;66.30;;;;;;5019041;28;20453;-71
2022/08/03 07:30:47;;;;;;;6.90;2.20;;;24.80;65.90;;;;;;5029027;28;20124;-71
2022/08/03 07:33:12;;;;;;;4.90;2.05;;;25.00;65.70;;;;;;5025173;28;20378;-71
2022/08/03 07:35:38;;;;;;;2.90;2.00;;;25.20;67.10;;;;;;5027744;28;20472;-71
2022/08/03 07:38:03;;;;;;;5.07;1.83;;;25.10;65.40;;;;;;5028378;28;20053;-71
2022/08/03 07:40:29;;;;;;;3.17;1.85;;;25.00;64.20;;;;;;5027194;28;20069;-71
2022/08/03 07:42:54;;;;;;;4.00;2.10;;;24.90;65.10;;;;;;5023685;28;20105;-71
2022/08/03 07:45:22;;;;;;;2.80;1.50;;;24.90;65.20;;;;;;5025950;28;20075;-71
2022/08/03 07:47:47;;;;;;;4.30;2.22;;;25.00;65.00;;;;;;5024775;28;20034;-71
2022/08/03 07:50:13;;;;;;;4.05;1.75;;;25.00;63.90;;;;;;5023191;28;20034;-71
2022/08/03 07:52:47;;;;;;;3.90;2.33;;;25.20;64.50;;;;;;5027997;28;20318;-71
2022/08/03 07:55:13;;;;;;;3.10;1.75;;;25.40;65.00;;;;;;5027437;28;20052;-71
2022/08/03 07:57:39;;;;;;;4.00;1.60;;;25.80;64.50;;;;;;5027304;28;20037;-71
2022/08/03 08:00:09;;;;;;;2.65;1.77;;;25.90;62.20;;;;;;5025701;28;20473;-71
2022/08/03 08:02:35;;;;;;;;;;;26.10;63.70;;;;;;5026170;28;20048;-71
2022/08/03 08:05:00;;;;;;;3.15;1.60;;;26.40;62.30;;;;;;5028376;28;20004;-71
2022/08/03 08:07:26;;;;;;;3.80;1.92;;;26.40;61.30;;;;;;5029163;28;20075;-71
2022/08/03 08:09:51;;;;;;;3.28;1.85;;;26.40;61.00;;;;;;5023281;28;20034;-71
2022/08/03 08:12:17;;;;;;;5.97;1.60;;;26.50;62.30;;;;;;5024463;28;20029;-71
2022/08/03 08:14:45;;;;;;;4.68;1.67;;;26.50;61.90;;;;;;5015818;28;20030;-71
2022/08/03 08:17:11;;;;;;;3.17;1.48;;;26.70;60.80;;;;;;5018160;28;20211;-71
2022/08/03 08:19:36;;;;;;;3.08;1.75;;;26.90;60.40;;;;;;5026125;28;20183;-71
2022/08/03 08:22:02;;;;;;;3.33;1.90;;;26.90;59.90;;;;;;5027197;28;20029;-71
2022/08/03 08:24:29;;;;;;;3.97;1.73;;;27.00;59.20;;;;;;5029496;28;20034;-71
2022/08/03 08:26:55;;;;;;;2.42;1.40;;;27.00;60.30;;;;;;5026320;28;20026;-71
2022/08/03 08:29:22;;;;;;;6.15;1.77;;;27.20;59.00;;;;;;5023521;28;20022;-71
2022/08/03 08:31:49;;;;;;;2.83;1.58;;;27.30;58.70;;;;;;5023154;28;20040;-71
2022/08/03 08:34:14;;;;;;;2.05;1.45;;;27.30;59.50;;;;;;5027453;28;20036;-71
2022/08/03 08:36:40;;;;;;;2.47;1.55;;;27.50;58.30;;;;;;5017747;28;20034;-71
2022/08/03 08:39:06;;;;;;;3.80;1.63;;;27.50;59.80;;;;;;5028664;28;20049;-71
2022/08/03 08:41:33;;;;;;;3.13;1.40;;;27.40;57.70;;;;;;5027265;28;20049;-71
2022/08/03 08:44:00;;;;;;;3.92;1.60;;;27.50;58.10;;;;;;5028322;28;20572;-71
2022/08/03 08:46:25;;;;;;;3.78;1.45;;;27.60;60.80;;;;;;5025471;28;20033;-71
2022/08/03 08:48:53;;;;;;;6.60;1.73;;;27.60;59.00;;;;;;5026967;28;20039;-71
2022/08/03 08:51:20;;;;;;;10.45;1.90;;;27.50;57.90;;;;;;5027048;28;20029;-71
2022/08/03 08:53:50;;;;;;;3.22;1.50;;;27.30;58.60;;;;;;5018679;28;20075;-71
2022/08/03 08:56:17;;;;;;;4.40;1.45;;;27.20;57.70;;;;;;5019516;28;20446;-71
2022/08/03 08:58:56;;;;;;;7.82;2.25;;;27.50;59.00;;;;;;5022725;28;20057;-71
2022/08/03 09:01:22;;;;;;;9.13;1.60;;;27.50;57.40;;;;;;5021844;28;20029;-71
2022/08/03 09:03:48;;;;;;;9.20;1.83;;;27.70;57.80;;;;;;5027772;28;20476;-71
2022/08/03 09:06:14;;;;;;;4.28;1.60;;;28.00;56.40;;;;;;5023246;28;20650;-71
2022/08/03 09:08:39;;;;;;;3.22;1.15;;;28.20;58.50;;;;;;5027076;28;20013;-71
2022/08/03 09:11:06;;;;;;;6.25;1.52;;;28.10;56.30;;;;;;5028397;28;20075;-71
2022/08/03 09:13:33;;;;;;;2.88;1.30;;;28.10;55.20;;;;;;5027598;28;20095;-71
2022/08/03 09:16:13;;;;;;;4.20;1.73;;;28.00;55.30;;;;;;5026328;28;20106;-71
2022/08/03 09:18:40;;;;;;;4.57;1.67;;;28.20;56.00;;;;;;5022977;28;20025;-71
2022/08/03 09:21:28;;;;;;;5.97;1.23;;;28.10;57.10;;;;;;5030301;28;20044;-71
2022/08/03 09:23:55;;;;;;;6.13;1.33;;;28.00;56.00;;;;;;5029845;28;20025;-71
2022/08/03 09:26:28;;;;;;;2.38;1.08;;;28.00;55.60;;;;;;5029379;28;20040;-71
2022/08/03 09:28:55;;;;;;;3.35;1.25;;;28.40;55.00;;;;;;5013829;28;20026;-71
2022/08/03 09:31:32;;;;;;;1.95;1.20;;;28.40;54.70;;;;;;5023605;28;20064;-71
2022/08/03 09:34:00;;;;;;;4.53;1.65;;;28.40;54.90;;;;;;5028512;28;20057;-71
2022/08/03 09:36:42;;;;;;;3.55;1.42;;;28.60;54.40;;;;;;5022947;28;20160;-71
2022/08/03 09:39:10;;;;;;;4.95;1.50;;;28.60;54.60;;;;;;5024541;28;20055;-71
2022/08/03 09:41:44;;;;;;;6.28;1.63;;;28.70;54.10;;;;;;5025566;28;20053;-71
2022/08/03 09:44:09;;;;;;;4.70;1.50;;;29.00;53.30;;;;;;5022973;28;20033;-71
2022/08/03 09:46:50;;;;;;;2.90;1.45;;;29.00;54.10;;;;;;5021564;28;20034;-71
2022/08/03 09:49:15;;;;;;;2.55;1.30;;;29.00;54.10;;;;;;5026855;28;20044;-71
2022/08/03 09:51:41;;;;;;;3.97;1.52;;;28.90;55.20;;;;;;5030015;28;20144;-71
2022/08/03 09:54:07;;;;;;;2.22;1.30;;;28.40;54.20;;;;;;5029626;28;20029;-71
2022/08/03 09:56:42;;;;;;;3.35;1.38;;;28.20;54.70;;;;;;5025891;28;20469;-71
2022/08/03 09:59:10;;;;;;;4.72;1.75;;;28.50;54.90;;;;;;5020455;28;20151;-71
2022/08/03 10:01:36;;;;;;;6.00;1.38;;;28.50;53.30;;;;;;5019737;28;20038;-71
2022/08/03 10:04:02;;;;;;;5.53;1.67;;;28.70;54.30;;;;;;5016722;28;20335;-71
2022/08/03 10:06:27;;;;;;;3.13;1.20;;;29.30;55.00;;;;;;5023584;28;20037;-71
2022/08/03 10:09:11;;;;;;;1.38;1.00;;;29.50;52.80;;;;;;5019626;28;20025;-71
2022/08/03 10:11:39;;;;;;;3.15;1.40;;;30.00;54.40;;;;;;5018261;28;20057;-71
2022/08/03 10:14:06;;;;;;;6.47;1.48;;;29.80;52.20;;;;;;5018400;28;20030;-71
2022/08/03 10:16:37;;;;;;;3.50;1.20;;;29.60;51.40;;;;;;5016607;28;20033;-71
2022/08/03 10:19:07;;;;;;;3.83;1.40;;;30.00;51.60;;;;;;5017864;28;20022;-71
2022/08/03 10:21:38;;;;;;;4.65;1.30;;;29.70;51.10;;;;;;5018020;28;20468;-71
2022/08/03 10:24:06;;;;;;;3.70;1.40;;;29.90;50.70;;;;;;5017334;28;20026;-71
2022/08/03 10:26:34;;;;;;;4.90;1.20;;;29.80;51.40;;;;;;5019527;28;20117;-71
2022/08/03 10:29:02;;;;;;;3.65;1.20;;;30.00;51.40;;;;;;5018032;28;20113;-72
2022/08/03 10:31:38;;;;;;;5.00;1.20;;;29.90;51.20;;;;;;5014928;28;20148;-73
2022/08/03 10:34:07;;;;;;;4.32;1.10;;;29.80;49.90;;;;;;5016274;28;20068;-73
2022/08/03 10:36:35;;;;;;;4.40;1.48;;;29.60;50.30;;;;;;5021549;28;20148;-73
2022/08/03 10:39:01;;;;;;;4.15;1.40;;;29.70;51.60;;;;;;5026944;28;20056;-73
2022/08/03 10:41:38;;;;;;;4.57;1.60;;;29.60;51.00;;;;;;5027536;28;20037;-72
2022/08/03 10:44:13;;;;;;;5.22;1.52;;;29.50;51.20;;;;;;5018397;28;20484;-73
2022/08/03 10:46:40;;;;;;;4.93;1.27;;;29.80;50.50;;;;;;5021377;28;20573;-73
2022/08/03 10:49:07;;;;;;;3.53;1.20;;;30.00;50.30;;;;;;5016017;28;20029;-72
2022/08/03 10:51:33;;;;;;;4.85;1.65;;;30.20;49.60;;;;;;5017262;28;20035;-72
2022/08/03 10:53:59;;;;;;;5.50;1.40;;;30.30;49.90;;;;;;5018870;28;20026;-73
2022/08/03 10:59:15;;;;;;;4.57;1.00;;;30.60;49.50;;;;;;5017860;28;20047;-73
2022/08/03 11:01:55;;;;;;;7.55;1.27;;;30.60;48.70;;;;;;5012105;28;20025;-73
2022/08/03 11:04:23;;;;;;;;;;;31.30;49.20;;;;;;5020114;28;20052;-73
2022/08/03 11:07:14;;;;;;;4.18;1.10;;;31.00;48.80;;;;;;5015580;28;19919;-73
2022/08/03 11:09:41;;;;;;;3.17;1.10;;;31.10;46.90;;;;;;5016411;28;20033;-73
2022/08/03 11:12:21;;;;;;;6.22;1.38;;;31.00;47.90;;;;;;5016983;28;20045;-73
2022/08/03 11:14:47;;;;;;;4.03;1.30;;;31.00;47.40;;;;;;5017669;28;20039;-73
2022/08/03 11:17:13;;;;;;;5.13;1.08;;;31.40;47.20;;;;;;5018485;28;20057;-73
2022/08/03 11:19:46;;;;;;;3.95;1.40;;;31.80;48.30;;;;;;5014178;28;20176;-73
2022/08/03 11:22:13;;;;;;;2.25;1.02;;;31.80;47.00;;;;;;5015166;28;20022;-73
2022/08/03 11:24:42;;;;;;;3.92;1.30;;;31.90;45.70;;;;;;5016684;28;20017;-73
2022/08/03 11:27:14;;;;;;;2.88;1.10;;;32.00;45.70;;;;;;5019210;28;20026;-73
2022/08/03 11:29:55;;;;;;;6.60;1.30;;;32.10;48.00;;;;;;5015535;28;20022;-73
2022/08/03 11:32:36;;;;;;;6.80;1.20;;;32.00;48.40;;;;;;5017262;28;20022;-73
2022/08/03 11:35:13;;;;;;;4.13;1.33;;;32.10;46.60;;;;;;5015634;28;20108;-73
2022/08/03 11:37:56;;;;;;;3.05;1.20;;;32.20;46.30;;;;;;5021014;28;20900;-73
2022/08/03 11:40:52;;;;;;;3.17;1.08;;;32.60;47.00;;;;;;5013359;28;20072;-73
2022/08/03 11:43:20;;;;;;;1.92;1.20;;;32.90;44.80;;;;;;5015674;28;20733;-73
2022/08/03 11:46:00;;;;;;;6.78;1.50;;;32.40;44.60;;;;;;5012914;28;20026;-73
2022/08/03 11:48:27;;;;;;;4.87;1.10;;;32.30;44.60;;;;;;5013797;28;20029;-73
2022/08/03 11:50:53;;;;;;;5.15;1.20;;;32.50;45.10;;;;;;5013920;28;20056;-73
2022/08/03 11:53:19;;;;;;;4.85;1.42;;;32.70;44.60;;;;;;5014533;28;20042;-73
2022/08/03 11:55:49;;;;;;;2.30;1.10;;;33.20;44.10;;;;;;5016854;28;20021;-73
2022/08/03 11:58:18;;;;;;;4.22;1.33;;;33.20;44.70;;;;;;5014101;28;20132;-73
2022/08/03 12:00:43;;;;;;;4.57;1.10;;;32.90;44.50;;;;;;5021185;28;20029;-73
2022/08/03 12:03:15;;;;;;;4.30;1.23;;;32.60;44.00;;;;;;5019384;28;20469;-73
2022/08/03 12:05:47;;;;;;;1.52;0.90;;;33.10;44.40;;;;;;5022739;28;20048;-73
2022/08/03 12:08:15;;;;;;;2.75;1.02;;;33.20;41.80;;;;;;5020907;28;20037;-73
2022/08/03 12:10:46;;;;;;;3.78;1.45;;;33.20;41.60;;;;;;5021197;28;20032;-73
2022/08/03 12:13:12;;;;;;;3.45;1.02;;;33.20;42.40;;;;;;5020198;28;20370;-73
2022/08/03 12:15:37;;;;;;;3.65;1.05;;;33.60;43.00;;;;;;5026235;28;20030;-73
2022/08/03 12:18:13;;;;;;;7.70;1.33;;;34.10;40.70;;;;;;5018692;28;20556;-73
2022/08/03 12:20:38;;;;;;;3.20;1.10;;;34.50;41.70;;;;;;5012200;28;20030;-73
2022/08/03 12:23:05;;;;;;;5.88;1.10;;;34.50;40.80;;;;;;5014855;28;20381;-73
2022/08/03 12:25:32;;;;;;;5.38;1.20;;;34.80;42.50;;;;;;5018863;28;20031;-73
2022/08/03 12:28:15;;;;;;;2.42;0.90;;;35.00;40.90;;;;;;5018070;28;20030;-73
2022/08/03 12:30:42;;;;;;;4.28;1.17;;;35.00;38.60;;;;;;5017524;28;20435;-73
2022/08/03 12:33:26;;;;;;;4.82;1.20;;;34.80;39.40;;;;;;5011132;28;20072;-73
2022/08/03 12:36:09;;;;;;;7.15;1.40;;;34.60;41.00;;;;;;5019199;28;20408;-73
2022/08/03 12:38:37;;;;;;;8.15;1.23;;;34.60;40.40;;;;;;5009625;28;20048;-73
2022/08/03 12:41:12;;;;;;;3.60;1.20;;;34.60;40.60;;;;;;5017309;28;20477;-73
2022/08/03 12:43:50;;;;;;;3.83;1.27;;;34.90;39.20;;;;;;5016671;28;20025;-73
2022/08/03 12:46:18;;;;;;;6.18;1.30;;;35.00;39.90;;;;;;5020234;28;20034;-73
2022/08/03 12:49:10;;;;;;;6.53;1.40;;;34.70;39.50;;;;;;5016926;28;20029;-73
2022/08/03 12:51:49;;;;;;;3.47;1.30;;;34.50;40.80;;;;;;5018311;28;20064;-73
2022/08/03 12:54:22;;;;;;;4.43;1.40;;;35.40;39.50;;;;;;5019510;28;20448;-73
2022/08/03 12:57:02;;;;;;;3.65;1.30;;;35.30;37.20;;;;;;5028022;28;20483;-73
2022/08/03 12:59:32;;;;;;;2.80;1.05;;;35.60;38.30;;;;;;5027969;28;20354;-73
2022/08/03 13:01:58;;;;;;;4.72;1.20;;;35.40;38.20;;;;;;5027070;28;20031;-73
2022/08/03 13:04:33;;;;;;;5.38;1.10;;;35.70;39.00;;;;;;5023907;28;20029;-73
2022/08/03 13:07:02;;;;;;;5.22;1.40;;;35.80;37.50;;;;;;5030555;28;20020;-73